sensor_id;sensor_type;location;lat;lon;timestamp;P1;durP1;ratioP1;P2;durP2;ratioP2
18280;SDS011;9266;51.132;17.062;2022-10-03T00:00:27;10.23;;;4.27;;
18280;SDS011;9266;51.132;17.062;2022-10-03T00:05:58;7.20;;;3.90;;
18280;SDS011;9266;51.132;17.062;2022-10-03T00:08:42;11.97;;;4.27;;
18280;SDS011;9266;51.132;17.062;2022-10-03T00:11:22;8.33;;;4.27;;
18280;SDS011;9266;51.132;17.062;2022-10-03T00:13:59;7.13;;;3.87;;
18280;SDS011;9266;51.132;17.062;2022-10-03T00:16:36;7.93;;;3.90;;
18280;SDS011;9266;51.132;17.062;2022-10-03T00:19:15;8.40;;;4.30;;
18280;SDS011;9266;51.132;17.062;2022-10-03T00:21:53;8.53;;;4.57;;
18280;SDS011;9266;51.132;17.062;2022-10-03T00:24:30;6.70;;;3.83;;
18280;SDS011;9266;51.132;17.062;2022-10-03T00:27:13;10.63;;;4.30;;
18280;SDS011;9266;51.132;17.062;2022-10-03T00:29:55;11.00;;;4.03;;
18280;SDS011;9266;51.132;17.062;2022-10-03T00:32:51;6.80;;;3.60;;
18280;SDS011;9266;51.132;17.062;2022-10-03T00:35:39;9.73;;;4.43;;
18280;SDS011;9266;51.132;17.062;2022-10-03T00:44:31;7.37;;;4.00;;
18280;SDS011;9266;51.132;17.062;2022-10-03T00:47:35;9.90;;;4.33;;
18280;SDS011;9266;51.132;17.062;2022-10-03T00:50:27;8.47;;;3.87;;
18280;SDS011;9266;51.132;17.062;2022-10-03T00:53:23;10.90;;;3.80;;
18280;SDS011;9266;51.132;17.062;2022-10-03T00:56:05;12.17;;;4.70;;
18280;SDS011;9266;51.132;17.062;2022-10-03T00:58:51;9.93;;;4.00;;
18280;SDS011;9266;51.132;17.062;2022-10-03T01:01:37;7.87;;;3.63;;
18280;SDS011;9266;51.132;17.062;2022-10-03T01:04:26;7.47;;;3.80;;
18280;SDS011;9266;51.132;17.062;2022-10-03T01:07:18;10.27;;;4.27;;
18280;SDS011;9266;51.132;17.062;2022-10-03T01:09:58;8.30;;;3.63;;
18280;SDS011;9266;51.132;17.062;2022-10-03T01:12:40;10.33;;;4.10;;
18280;SDS011;9266;51.132;17.062;2022-10-03T01:15:23;8.83;;;4.27;;
18280;SDS011;9266;51.132;17.062;2022-10-03T01:18:07;9.93;;;4.10;;
18280;SDS011;9266;51.132;17.062;2022-10-03T01:20:47;11.67;;;3.80;;
18280;SDS011;9266;51.132;17.062;2022-10-03T01:23:43;9.57;;;3.80;;
18280;SDS011;9266;51.132;17.062;2022-10-03T01:26:35;7.77;;;3.37;;
18280;SDS011;9266;51.132;17.062;2022-10-03T01:29:19;10.40;;;4.20;;
18280;SDS011;9266;51.132;17.062;2022-10-03T01:32:09;10.07;;;3.93;;
18280;SDS011;9266;51.132;17.062;2022-10-03T01:34:44;10.53;;;3.90;;
18280;SDS011;9266;51.132;17.062;2022-10-03T01:37:16;9.77;;;4.40;;
18280;SDS011;9266;51.132;17.062;2022-10-03T01:39:49;8.63;;;3.80;;
18280;SDS011;9266;51.132;17.062;2022-10-03T01:42:28;8.93;;;4.03;;
18280;SDS011;9266;51.132;17.062;2022-10-03T01:45:09;7.40;;;3.80;;
18280;SDS011;9266;51.132;17.062;2022-10-03T01:47:48;9.80;;;3.87;;
18280;SDS011;9266;51.132;17.062;2022-10-03T01:50:20;9.43;;;3.93;;
18280;SDS011;9266;51.132;17.062;2022-10-03T01:52:56;12.53;;;4.17;;
18280;SDS011;9266;51.132;17.062;2022-10-03T01:55:30;7.07;;;4.03;;
18280;SDS011;9266;51.132;17.062;2022-10-03T01:58:04;8.10;;;4.33;;
18280;SDS011;9266;51.132;17.062;2022-10-03T02:00:39;11.50;;;4.03;;
18280;SDS011;9266;51.132;17.062;2022-10-03T02:03:13;10.33;;;4.13;;
18280;SDS011;9266;51.132;17.062;2022-10-03T02:05:47;13.50;;;4.13;;
18280;SDS011;9266;51.132;17.062;2022-10-03T02:08:34;12.13;;;4.17;;
18280;SDS011;9266;51.132;17.062;2022-10-03T02:11:20;8.57;;;4.37;;
18280;SDS011;9266;51.132;17.062;2022-10-03T02:13:57;9.00;;;3.83;;
18280;SDS011;9266;51.132;17.062;2022-10-03T02:16:37;10.90;;;4.07;;
18280;SDS011;9266;51.132;17.062;2022-10-03T02:19:11;7.87;;;3.93;;
18280;SDS011;9266;51.132;17.062;2022-10-03T02:21:45;12.67;;;4.10;;
18280;SDS011;9266;51.132;17.062;2022-10-03T02:24:21;11.03;;;4.60;;
18280;SDS011;9266;51.132;17.062;2022-10-03T02:27:06;9.70;;;3.90;;
18280;SDS011;9266;51.132;17.062;2022-10-03T02:30:03;11.57;;;5.00;;
18280;SDS011;9266;51.132;17.062;2022-10-03T02:33:00;9.33;;;4.10;;
18280;SDS011;9266;51.132;17.062;2022-10-03T02:44:56;10.73;;;4.73;;
18280;SDS011;9266;51.132;17.062;2022-10-03T02:53:55;7.87;;;3.90;;
18280;SDS011;9266;51.132;17.062;2022-10-03T02:57:04;9.97;;;4.40;;
18280;SDS011;9266;51.132;17.062;2022-10-03T03:06:01;12.43;;;4.70;;
18280;SDS011;9266;51.132;17.062;2022-10-03T03:18:11;11.13;;;4.70;;
18280;SDS011;9266;51.132;17.062;2022-10-03T03:21:04;10.90;;;4.20;;
18280;SDS011;9266;51.132;17.062;2022-10-03T03:23:48;10.07;;;4.43;;
18280;SDS011;9266;51.132;17.062;2022-10-03T03:29:27;13.80;;;5.57;;
18280;SDS011;9266;51.132;17.062;2022-10-03T11:05:38;6.63;;;2.57;;
18280;SDS011;9266;51.132;17.062;2022-10-03T11:08:53;7.07;;;2.93;;
18280;SDS011;9266;51.132;17.062;2022-10-03T11:11:58;7.70;;;3.00;;
18280;SDS011;9266;51.132;17.062;2022-10-03T11:37:32;6.60;;;2.83;;
18280;SDS011;9266;51.132;17.062;2022-10-03T11:40:26;4.77;;;2.43;;
18280;SDS011;9266;51.132;17.062;2022-10-03T11:43:28;4.93;;;2.70;;
18280;SDS011;9266;51.132;17.062;2022-10-03T11:46:29;7.47;;;3.20;;
18280;SDS011;9266;51.132;17.062;2022-10-03T11:49:25;5.70;;;3.20;;
18280;SDS011;9266;51.132;17.062;2022-10-03T11:52:11;5.33;;;2.80;;
18280;SDS011;9266;51.132;17.062;2022-10-03T11:55:31;5.90;;;3.47;;
18280;SDS011;9266;51.132;17.062;2022-10-03T11:58:16;4.87;;;2.70;;
18280;SDS011;9266;51.132;17.062;2022-10-03T12:01:31;4.20;;;2.93;;
18280;SDS011;9266;51.132;17.062;2022-10-03T12:04:22;7.97;;;2.77;;
18280;SDS011;9266;51.132;17.062;2022-10-03T12:07:17;6.63;;;3.20;;
18280;SDS011;9266;51.132;17.062;2022-10-03T12:10:35;4.30;;;2.80;;
18280;SDS011;9266;51.132;17.062;2022-10-03T12:13:24;4.17;;;3.00;;
18280;SDS011;9266;51.132;17.062;2022-10-03T12:16:02;4.77;;;3.07;;
18280;SDS011;9266;51.132;17.062;2022-10-03T12:19:00;6.97;;;3.87;;
18280;SDS011;9266;51.132;17.062;2022-10-03T12:21:53;7.50;;;3.90;;
18280;SDS011;9266;51.132;17.062;2022-10-03T12:24:37;7.33;;;3.37;;
18280;SDS011;9266;51.132;17.062;2022-10-03T12:27:24;9.07;;;3.60;;
18280;SDS011;9266;51.132;17.062;2022-10-03T12:30:10;8.20;;;4.10;;
18280;SDS011;9266;51.132;17.062;2022-10-03T12:33:05;6.53;;;3.63;;
18280;SDS011;9266;51.132;17.062;2022-10-03T12:36:22;5.10;;;3.30;;
18280;SDS011;9266;51.132;17.062;2022-10-03T12:42:03;5.33;;;3.30;;
18280;SDS011;9266;51.132;17.062;2022-10-03T12:44:56;5.17;;;3.17;;
18280;SDS011;9266;51.132;17.062;2022-10-03T12:47:42;5.53;;;3.50;;
18280;SDS011;9266;51.132;17.062;2022-10-03T12:50:30;5.20;;;3.20;;
18280;SDS011;9266;51.132;17.062;2022-10-03T12:53:29;7.07;;;3.63;;
18280;SDS011;9266;51.132;17.062;2022-10-03T12:56:12;8.80;;;3.60;;
18280;SDS011;9266;51.132;17.062;2022-10-03T12:59:04;6.37;;;3.50;;
18280;SDS011;9266;51.132;17.062;2022-10-03T13:02:12;4.87;;;3.80;;
18280;SDS011;9266;51.132;17.062;2022-10-03T13:08:25;5.57;;;2.70;;
18280;SDS011;9266;51.132;17.062;2022-10-03T13:11:07;3.97;;;2.87;;
18280;SDS011;9266;51.132;17.062;2022-10-03T13:17:41;7.90;;;3.60;;
18280;SDS011;9266;51.132;17.062;2022-10-03T13:20:18;9.33;;;3.23;;
18280;SDS011;9266;51.132;17.062;2022-10-03T13:23:07;6.33;;;2.70;;
18280;SDS011;9266;51.132;17.062;2022-10-03T13:25:57;8.73;;;3.40;;
18280;SDS011;9266;51.132;17.062;2022-10-03T13:28:48;4.83;;;2.83;;
18280;SDS011;9266;51.132;17.062;2022-10-03T13:35:19;7.37;;;3.23;;
18280;SDS011;9266;51.132;17.062;2022-10-03T13:38:27;6.17;;;2.90;;
18280;SDS011;9266;51.132;17.062;2022-10-03T13:41:30;5.93;;;2.87;;
18280;SDS011;9266;51.132;17.062;2022-10-03T13:44:23;9.50;;;3.00;;
18280;SDS011;9266;51.132;17.062;2022-10-03T13:47:12;5.80;;;2.70;;
18280;SDS011;9266;51.132;17.062;2022-10-03T13:50:16;5.23;;;2.93;;
18280;SDS011;9266;51.132;17.062;2022-10-03T13:52:51;8.33;;;3.10;;
18280;SDS011;9266;51.132;17.062;2022-10-03T13:56:49;7.73;;;2.93;;
18280;SDS011;9266;51.132;17.062;2022-10-03T13:58:43;4.50;;;2.80;;
18280;SDS011;9266;51.132;17.062;2022-10-03T14:05:00;7.23;;;2.90;;
18280;SDS011;9266;51.132;17.062;2022-10-03T14:54:54;5.63;;;3.43;;
18280;SDS011;9266;51.132;17.062;2022-10-03T14:58:15;7.17;;;3.20;;
18280;SDS011;9266;51.132;17.062;2022-10-03T15:08:16;7.83;;;3.80;;
18280;SDS011;9266;51.132;17.062;2022-10-03T15:21:39;7.43;;;3.10;;
18280;SDS011;9266;51.132;17.062;2022-10-03T21:00:05;6.13;;;4.07;;
18280;SDS011;9266;51.132;17.062;2022-10-03T21:02:53;9.57;;;3.50;;
18280;SDS011;9266;51.132;17.062;2022-10-03T21:05:26;9.80;;;3.63;;
18280;SDS011;9266;51.132;17.062;2022-10-03T21:08:27;7.00;;;3.30;;
18280;SDS011;9266;51.132;17.062;2022-10-03T21:11:26;9.57;;;3.93;;
18280;SDS011;9266;51.132;17.062;2022-10-03T21:14:33;7.87;;;3.70;;
18280;SDS011;9266;51.132;17.062;2022-10-03T21:17:31;8.50;;;3.13;;
18280;SDS011;9266;51.132;17.062;2022-10-03T21:20:39;10.20;;;3.63;;
18280;SDS011;9266;51.132;17.062;2022-10-03T21:23:53;9.60;;;3.60;;
18280;SDS011;9266;51.132;17.062;2022-10-03T21:26:51;6.33;;;3.10;;
18280;SDS011;9266;51.132;17.062;2022-10-03T21:29:50;7.20;;;3.30;;
18280;SDS011;9266;51.132;17.062;2022-10-03T21:35:27;11.80;;;3.60;;
18280;SDS011;9266;51.132;17.062;2022-10-03T21:38:02;10.60;;;3.20;;
18280;SDS011;9266;51.132;17.062;2022-10-03T21:43:57;7.47;;;3.40;;
18280;SDS011;9266;51.132;17.062;2022-10-03T21:50:05;9.63;;;3.77;;
18280;SDS011;9266;51.132;17.062;2022-10-03T21:53:06;7.77;;;3.93;;
18280;SDS011;9266;51.132;17.062;2022-10-03T22:03:04;9.70;;;3.53;;
18280;SDS011;9266;51.132;17.062;2022-10-03T22:05:52;6.03;;;3.80;;
18280;SDS011;9266;51.132;17.062;2022-10-03T22:08:43;9.80;;;3.50;;
18280;SDS011;9266;51.132;17.062;2022-10-03T22:11:40;8.27;;;3.57;;
18280;SDS011;9266;51.132;17.062;2022-10-03T22:14:21;10.33;;;3.53;;
18280;SDS011;9266;51.132;17.062;2022-10-03T22:17:05;11.10;;;3.80;;
18280;SDS011;9266;51.132;17.062;2022-10-03T22:20:04;8.77;;;4.03;;
18280;SDS011;9266;51.132;17.062;2022-10-03T22:24:59;11.03;;;3.90;;
18280;SDS011;9266;51.132;17.062;2022-10-03T22:26:30;9.30;;;4.20;;
18280;SDS011;9266;51.132;17.062;2022-10-03T22:29:25;6.00;;;3.30;;
